Mercer County (BLF)

 

Airport Diagram
No Airport Diagram Available
Current Weather/Forecast (VFR Conditions)
METAR KBLF 232352Z AUTO 15007KT 10SM CLR 19/11 A3011 RMK AO2 SLP171 T01940111 10233 20194 55005
TAF KBLF 232340Z 2400/2424 20003KT P6SM SCT250 FM240900 25005KT P6SM BKN035 FM241100 26005KT 6SM -SHRA BR OVC014 FM241500 29005KT 4SM BR BKN005 OVC011 FM241800 32005KT P6SM OVC010

Airport Information

All Charts
General
Chart Name View
TAKEOFF MINIMUMS
ALTERNATE MINIMUMS
TAKEOFF MINIMUMS
ALTERNATE MINIMUMS

Departures
Chart Name Download
OBERS FOUR
OBERS FOUR

Approaches
Chart Name Download
ILS OR LOC RWY 23
RNAV (GPS) RWY 05
RNAV (GPS) RWY 23
VOR RWY 23
ILS OR LOC RWY 23
RNAV (GPS) RWY 05
RNAV (GPS) RWY 23
VOR RWY 23


Airport Statistics
Departures Arrivals Local
All Collected Stats since June 2016: 13 16 0
2020 Stats: 4 5 0
October Stats: 0 0 0

Inbound Traffic (Arrivals) - 0

No inbound traffic.


Outbound Traffic (Departures) - 0

No outbound traffic.


Local Traffic (Pattern) - 0

No local traffic.